sensor_id;sensor_type;location;lat;lon;timestamp;P1;durP1;ratioP1;P2;durP2;ratioP2
35418;SDS011;21525;41.240;16.500;2023-04-06T00:01:37;11.85;;;9.48;;
35418;SDS011;21525;41.240;16.500;2023-04-06T00:04:04;13.05;;;8.95;;
35418;SDS011;21525;41.240;16.500;2023-04-06T00:06:30;11.00;;;8.43;;
35418;SDS011;21525;41.240;16.500;2023-04-06T00:08:57;10.82;;;8.68;;
35418;SDS011;21525;41.240;16.500;2023-04-06T00:11:23;12.88;;;9.45;;
35418;SDS011;21525;41.240;16.500;2023-04-06T00:13:49;12.93;;;8.50;;
35418;SDS011;21525;41.240;16.500;2023-04-06T00:16:15;12.68;;;9.20;;
35418;SDS011;21525;41.240;16.500;2023-04-06T00:18:41;12.02;;;8.93;;
35418;SDS011;21525;41.240;16.500;2023-04-06T00:21:06;10.75;;;8.18;;
35418;SDS011;21525;41.240;16.500;2023-04-06T00:23:32;11.38;;;8.13;;
35418;SDS011;21525;41.240;16.500;2023-04-06T00:25:58;12.43;;;8.88;;
35418;SDS011;21525;41.240;16.500;2023-04-06T00:28:24;12.98;;;8.10;;
35418;SDS011;21525;41.240;16.500;2023-04-06T00:30:51;10.35;;;8.15;;
35418;SDS011;21525;41.240;16.500;2023-04-06T00:33:19;11.80;;;7.83;;
35418;SDS011;21525;41.240;16.500;2023-04-06T00:35:45;10.82;;;8.13;;
35418;SDS011;21525;41.240;16.500;2023-04-06T00:38:11;10.40;;;7.57;;
35418;SDS011;21525;41.240;16.500;2023-04-06T00:40:37;11.48;;;7.57;;
35418;SDS011;21525;41.240;16.500;2023-04-06T00:43:08;11.15;;;7.88;;
35418;SDS011;21525;41.240;16.500;2023-04-06T00:45:34;10.57;;;7.32;;
35418;SDS011;21525;41.240;16.500;2023-04-06T00:48:00;11.25;;;7.38;;
35418;SDS011;21525;41.240;16.500;2023-04-06T00:50:30;11.15;;;6.93;;
35418;SDS011;21525;41.240;16.500;2023-04-06T00:52:56;9.88;;;7.35;;
35418;SDS011;21525;41.240;16.500;2023-04-06T00:55:26;10.38;;;7.90;;
35418;SDS011;21525;41.240;16.500;2023-04-06T00:57:52;11.77;;;7.25;;
35418;SDS011;21525;41.240;16.500;2023-04-06T01:00:18;14.63;;;7.05;;
35418;SDS011;21525;41.240;16.500;2023-04-06T01:02:46;9.38;;;6.78;;
35418;SDS011;21525;41.240;16.500;2023-04-06T01:05:16;12.18;;;6.97;;
35418;SDS011;21525;41.240;16.500;2023-04-06T01:07:49;11.35;;;7.05;;
35418;SDS011;21525;41.240;16.500;2023-04-06T01:10:26;10.02;;;7.13;;
35418;SDS011;21525;41.240;16.500;2023-04-06T01:13:11;9.13;;;6.97;;
35418;SDS011;21525;41.240;16.500;2023-04-06T01:15:59;12.43;;;7.23;;
35418;SDS011;21525;41.240;16.500;2023-04-06T01:18:45;8.75;;;6.57;;
35418;SDS011;21525;41.240;16.500;2023-04-06T01:21:20;13.23;;;7.20;;
35418;SDS011;21525;41.240;16.500;2023-04-06T01:24:18;8.63;;;6.07;;
35418;SDS011;21525;41.240;16.500;2023-04-06T01:27:10;9.27;;;6.47;;
35418;SDS011;21525;41.240;16.500;2023-04-06T01:29:56;10.50;;;6.32;;
35418;SDS011;21525;41.240;16.500;2023-04-06T01:32:48;10.02;;;6.10;;
35418;SDS011;21525;41.240;16.500;2023-04-06T01:35:20;8.88;;;5.72;;
35418;SDS011;21525;41.240;16.500;2023-04-06T01:37:58;9.85;;;5.55;;
35418;SDS011;21525;41.240;16.500;2023-04-06T01:40:29;9.10;;;5.60;;
35418;SDS011;21525;41.240;16.500;2023-04-06T01:42:55;9.15;;;5.43;;
35418;SDS011;21525;41.240;16.500;2023-04-06T01:45:29;11.88;;;6.50;;
35418;SDS011;21525;41.240;16.500;2023-04-06T01:48:00;11.27;;;6.63;;
35418;SDS011;21525;41.240;16.500;2023-04-06T01:50:27;12.05;;;8.05;;
35418;SDS011;21525;41.240;16.500;2023-04-06T01:52:53;13.52;;;9.02;;
35418;SDS011;21525;41.240;16.500;2023-04-06T01:55:21;10.57;;;7.78;;
35418;SDS011;21525;41.240;16.500;2023-04-06T01:58:09;10.55;;;6.93;;
35418;SDS011;21525;41.240;16.500;2023-04-06T02:00:37;10.30;;;8.10;;
35418;SDS011;21525;41.240;16.500;2023-04-06T02:03:03;11.77;;;9.63;;
35418;SDS011;21525;41.240;16.500;2023-04-06T02:05:31;12.25;;;9.80;;
35418;SDS011;21525;41.240;16.500;2023-04-06T02:08:06;18.92;;;12.80;;
35418;SDS011;21525;41.240;16.500;2023-04-06T02:10:36;14.85;;;12.45;;
35418;SDS011;21525;41.240;16.500;2023-04-06T02:13:10;11.82;;;8.93;;
35418;SDS011;21525;41.240;16.500;2023-04-06T02:15:37;13.50;;;8.73;;
35418;SDS011;21525;41.240;16.500;2023-04-06T02:18:03;11.27;;;7.72;;
35418;SDS011;21525;41.240;16.500;2023-04-06T02:20:29;9.68;;;6.63;;
35418;SDS011;21525;41.240;16.500;2023-04-06T02:22:56;9.35;;;6.68;;
35418;SDS011;21525;41.240;16.500;2023-04-06T02:25:24;9.75;;;7.15;;
35418;SDS011;21525;41.240;16.500;2023-04-06T02:27:50;9.25;;;6.63;;
35418;SDS011;21525;41.240;16.500;2023-04-06T02:30:16;10.90;;;6.32;;
35418;SDS011;21525;41.240;16.500;2023-04-06T02:32:42;10.32;;;6.03;;
35418;SDS011;21525;41.240;16.500;2023-04-06T02:35:08;11.02;;;6.93;;
35418;SDS011;21525;41.240;16.500;2023-04-06T02:37:34;9.98;;;6.25;;
35418;SDS011;21525;41.240;16.500;2023-04-06T02:40:00;10.30;;;6.03;;
35418;SDS011;21525;41.240;16.500;2023-04-06T02:42:29;13.48;;;6.53;;
35418;SDS011;21525;41.240;16.500;2023-04-06T02:44:55;11.27;;;8.07;;
35418;SDS011;21525;41.240;16.500;2023-04-06T02:47:25;13.85;;;7.13;;
35418;SDS011;21525;41.240;16.500;2023-04-06T02:49:51;8.35;;;6.13;;
35418;SDS011;21525;41.240;16.500;2023-04-06T02:52:17;10.80;;;6.32;;
35418;SDS011;21525;41.240;16.500;2023-04-06T02:54:43;9.68;;;6.00;;
35418;SDS011;21525;41.240;16.500;2023-04-06T02:57:09;11.77;;;5.85;;
35418;SDS011;21525;41.240;16.500;2023-04-06T02:59:39;10.40;;;6.10;;
35418;SDS011;21525;41.240;16.500;2023-04-06T03:02:27;9.95;;;7.05;;
35418;SDS011;21525;41.240;16.500;2023-04-06T03:05:02;9.75;;;5.68;;
35418;SDS011;21525;41.240;16.500;2023-04-06T03:07:33;11.38;;;6.63;;
35418;SDS011;21525;41.240;16.500;2023-04-06T03:09:59;9.35;;;6.43;;
35418;SDS011;21525;41.240;16.500;2023-04-06T03:12:25;9.77;;;6.80;;
35418;SDS011;21525;41.240;16.500;2023-04-06T03:15:23;12.40;;;7.50;;
35418;SDS011;21525;41.240;16.500;2023-04-06T03:18:09;11.93;;;6.70;;
35418;SDS011;21525;41.240;16.500;2023-04-06T03:20:39;18.33;;;6.93;;
35418;SDS011;21525;41.240;16.500;2023-04-06T03:23:05;9.85;;;6.95;;
35418;SDS011;21525;41.240;16.500;2023-04-06T03:25:35;15.18;;;7.10;;
35418;SDS011;21525;41.240;16.500;2023-04-06T03:30:34;11.07;;;6.30;;
35418;SDS011;21525;41.240;16.500;2023-04-06T03:33:00;13.98;;;7.68;;
35418;SDS011;21525;41.240;16.500;2023-04-06T03:35:31;16.25;;;7.25;;
35418;SDS011;21525;41.240;16.500;2023-04-06T03:37:56;15.85;;;7.80;;
35418;SDS011;21525;41.240;16.500;2023-04-06T03:40:23;13.68;;;9.05;;
35418;SDS011;21525;41.240;16.500;2023-04-06T03:42:49;12.77;;;7.97;;
35418;SDS011;21525;41.240;16.500;2023-04-06T03:45:16;14.40;;;7.90;;
35418;SDS011;21525;41.240;16.500;2023-04-06T03:47:46;13.85;;;7.72;;
35418;SDS011;21525;41.240;16.500;2023-04-06T03:50:13;11.48;;;6.68;;
35418;SDS011;21525;41.240;16.500;2023-04-06T03:52:38;18.85;;;7.82;;
35418;SDS011;21525;41.240;16.500;2023-04-06T03:55:05;10.45;;;7.40;;
35418;SDS011;21525;41.240;16.500;2023-04-06T03:57:32;9.70;;;6.50;;
35418;SDS011;21525;41.240;16.500;2023-04-06T03:59:58;13.73;;;8.10;;
35418;SDS011;21525;41.240;16.500;2023-04-06T04:02:25;12.80;;;7.50;;
35418;SDS011;21525;41.240;16.500;2023-04-06T04:04:51;13.38;;;7.38;;
35418;SDS011;21525;41.240;16.500;2023-04-06T04:07:17;16.60;;;8.15;;
35418;SDS011;21525;41.240;16.500;2023-04-06T04:09:43;11.98;;;8.13;;
35418;SDS011;21525;41.240;16.500;2023-04-06T04:12:10;15.02;;;8.32;;
35418;SDS011;21525;41.240;16.500;2023-04-06T04:14:36;12.88;;;7.72;;
35418;SDS011;21525;41.240;16.500;2023-04-06T04:17:02;13.38;;;7.88;;
35418;SDS011;21525;41.240;16.500;2023-04-06T04:19:27;13.52;;;8.02;;
35418;SDS011;21525;41.240;16.500;2023-04-06T04:21:55;11.82;;;7.57;;
35418;SDS011;21525;41.240;16.500;2023-04-06T04:24:28;12.43;;;7.47;;
35418;SDS011;21525;41.240;16.500;2023-04-06T04:26:54;13.32;;;8.20;;
35418;SDS011;21525;41.240;16.500;2023-04-06T04:29:22;13.63;;;8.43;;
35418;SDS011;21525;41.240;16.500;2023-04-06T04:31:49;12.68;;;8.35;;
35418;SDS011;21525;41.240;16.500;2023-04-06T04:34:16;13.52;;;9.23;;
35418;SDS011;21525;41.240;16.500;2023-04-06T04:36:45;12.05;;;7.60;;
35418;SDS011;21525;41.240;16.500;2023-04-06T04:39:17;16.10;;;9.95;;
35418;SDS011;21525;41.240;16.500;2023-04-06T04:41:48;16.02;;;8.98;;
35418;SDS011;21525;41.240;16.500;2023-04-06T04:44:14;12.82;;;8.85;;
35418;SDS011;21525;41.240;16.500;2023-04-06T04:46:41;14.18;;;8.75;;
35418;SDS011;21525;41.240;16.500;2023-04-06T04:49:09;18.25;;;9.50;;
35418;SDS011;21525;41.240;16.500;2023-04-06T04:51:34;17.08;;;8.60;;
35418;SDS011;21525;41.240;16.500;2023-04-06T04:54:13;17.52;;;9.90;;
35418;SDS011;21525;41.240;16.500;2023-04-06T04:56:40;16.20;;;10.57;;
35418;SDS011;21525;41.240;16.500;2023-04-06T04:59:34;19.50;;;11.57;;
35418;SDS011;21525;41.240;16.500;2023-04-06T05:02:09;17.42;;;12.00;;
35418;SDS011;21525;41.240;16.500;2023-04-06T05:04:43;22.85;;;13.85;;
35418;SDS011;21525;41.240;16.500;2023-04-06T05:07:13;19.95;;;13.15;;
35418;SDS011;21525;41.240;16.500;2023-04-06T05:09:40;23.33;;;14.45;;
35418;SDS011;21525;41.240;16.500;2023-04-06T05:12:06;26.30;;;15.80;;
35418;SDS011;21525;41.240;16.500;2023-04-06T05:14:41;22.73;;;15.43;;
35418;SDS011;21525;41.240;16.500;2023-04-06T05:17:12;22.42;;;14.07;;
35418;SDS011;21525;41.240;16.500;2023-04-06T05:20:34;22.45;;;13.45;;
35418;SDS011;21525;41.240;16.500;2023-04-06T05:23:01;19.67;;;12.32;;
35418;SDS011;21525;41.240;16.500;2023-04-06T05:25:27;18.17;;;11.05;;
35418;SDS011;21525;41.240;16.500;2023-04-06T05:27:57;18.60;;;10.40;;
35418;SDS011;21525;41.240;16.500;2023-04-06T05:30:28;18.42;;;10.23;;
35418;SDS011;21525;41.240;16.500;2023-04-06T05:32:54;15.38;;;10.30;;
35418;SDS011;21525;41.240;16.500;2023-04-06T05:35:22;13.83;;;9.67;;
35418;SDS011;21525;41.240;16.500;2023-04-06T05:37:51;13.20;;;8.50;;
35418;SDS011;21525;41.240;16.500;2023-04-06T05:40:21;17.75;;;9.55;;
35418;SDS011;21525;41.240;16.500;2023-04-06T05:42:47;16.35;;;8.98;;
35418;SDS011;21525;41.240;16.500;2023-04-06T05:45:15;14.75;;;9.13;;
35418;SDS011;21525;41.240;16.500;2023-04-06T05:47:44;16.58;;;9.10;;
35418;SDS011;21525;41.240;16.500;2023-04-06T05:50:20;20.05;;;9.40;;
35418;SDS011;21525;41.240;16.500;2023-04-06T05:52:45;20.13;;;10.13;;
35418;SDS011;21525;41.240;16.500;2023-04-06T05:55:14;17.17;;;8.63;;
35418;SDS011;21525;41.240;16.500;2023-04-06T05:57:45;20.25;;;8.40;;
35418;SDS011;21525;41.240;16.500;2023-04-06T06:00:14;16.15;;;8.50;;
35418;SDS011;21525;41.240;16.500;2023-04-06T06:02:49;16.92;;;11.02;;
35418;SDS011;21525;41.240;16.500;2023-04-06T06:05:19;18.52;;;9.20;;
35418;SDS011;21525;41.240;16.500;2023-04-06T06:07:45;17.23;;;8.80;;
35418;SDS011;21525;41.240;16.500;2023-04-06T06:10:12;14.30;;;9.18;;
35418;SDS011;21525;41.240;16.500;2023-04-06T06:12:39;17.20;;;9.45;;
35418;SDS011;21525;41.240;16.500;2023-04-06T06:15:05;14.20;;;8.57;;
35418;SDS011;21525;41.240;16.500;2023-04-06T06:17:35;18.40;;;8.57;;
35418;SDS011;21525;41.240;16.500;2023-04-06T06:20:01;16.58;;;8.40;;
35418;SDS011;21525;41.240;16.500;2023-04-06T06:22:28;22.13;;;9.20;;
35418;SDS011;21525;41.240;16.500;2023-04-06T06:24:54;15.65;;;8.80;;
35418;SDS011;21525;41.240;16.500;2023-04-06T06:27:20;13.00;;;8.30;;
35418;SDS011;21525;41.240;16.500;2023-04-06T06:29:47;15.70;;;8.23;;
35418;SDS011;21525;41.240;16.500;2023-04-06T06:32:13;14.73;;;7.80;;
35418;SDS011;21525;41.240;16.500;2023-04-06T06:34:40;15.13;;;7.55;;
35418;SDS011;21525;41.240;16.500;2023-04-06T06:37:07;13.00;;;8.25;;
35418;SDS011;21525;41.240;16.500;2023-04-06T06:39:35;15.50;;;8.20;;
35418;SDS011;21525;41.240;16.500;2023-04-06T06:42:02;14.48;;;7.25;;
35418;SDS011;21525;41.240;16.500;2023-04-06T06:45:00;15.82;;;8.18;;
35418;SDS011;21525;41.240;16.500;2023-04-06T06:47:28;16.27;;;7.93;;
35418;SDS011;21525;41.240;16.500;2023-04-06T06:49:54;11.07;;;7.28;;
35418;SDS011;21525;41.240;16.500;2023-04-06T06:52:21;16.15;;;7.43;;
35418;SDS011;21525;41.240;16.500;2023-04-06T06:54:48;12.18;;;6.90;;
35418;SDS011;21525;41.240;16.500;2023-04-06T06:57:14;16.90;;;8.10;;
35418;SDS011;21525;41.240;16.500;2023-04-06T06:59:40;12.52;;;7.65;;
35418;SDS011;21525;41.240;16.500;2023-04-06T07:02:06;13.32;;;7.97;;
35418;SDS011;21525;41.240;16.500;2023-04-06T07:04:32;18.55;;;7.65;;
35418;SDS011;21525;41.240;16.500;2023-04-06T07:06:58;17.60;;;8.13;;
35418;SDS011;21525;41.240;16.500;2023-04-06T07:09:24;12.65;;;7.80;;
35418;SDS011;21525;41.240;16.500;2023-04-06T07:11:51;14.52;;;7.38;;
35418;SDS011;21525;41.240;16.500;2023-04-06T07:14:17;15.18;;;7.85;;
35418;SDS011;21525;41.240;16.500;2023-04-06T07:16:43;12.48;;;8.30;;
35418;SDS011;21525;41.240;16.500;2023-04-06T07:19:10;20.13;;;8.65;;
35418;SDS011;21525;41.240;16.500;2023-04-06T07:21:36;17.48;;;8.88;;
35418;SDS011;21525;41.240;16.500;2023-04-06T07:24:02;15.18;;;7.80;;
35418;SDS011;21525;41.240;16.500;2023-04-06T07:26:28;17.63;;;7.43;;
35418;SDS011;21525;41.240;16.500;2023-04-06T07:28:54;16.77;;;7.88;;
35418;SDS011;21525;41.240;16.500;2023-04-06T07:31:22;17.85;;;8.60;;
35418;SDS011;21525;41.240;16.500;2023-04-06T07:33:48;22.90;;;7.40;;
35418;SDS011;21525;41.240;16.500;2023-04-06T07:36:17;17.65;;;7.65;;
35418;SDS011;21525;41.240;16.500;2023-04-06T07:38:43;18.30;;;7.32;;
35418;SDS011;21525;41.240;16.500;2023-04-06T07:41:11;12.18;;;7.13;;
35418;SDS011;21525;41.240;16.500;2023-04-06T07:43:37;12.32;;;6.57;;
35418;SDS011;21525;41.240;16.500;2023-04-06T07:46:04;14.98;;;7.28;;
35418;SDS011;21525;41.240;16.500;2023-04-06T07:48:30;12.75;;;7.35;;
35418;SDS011;21525;41.240;16.500;2023-04-06T07:51:02;11.02;;;6.55;;
35418;SDS011;21525;41.240;16.500;2023-04-06T07:53:29;13.20;;;7.10;;
35418;SDS011;21525;41.240;16.500;2023-04-06T07:55:56;10.15;;;5.72;;
35418;SDS011;21525;41.240;16.500;2023-04-06T07:58:22;8.73;;;4.80;;
35418;SDS011;21525;41.240;16.500;2023-04-06T08:00:48;10.30;;;4.75;;
35418;SDS011;21525;41.240;16.500;2023-04-06T08:03:14;8.52;;;5.07;;
35418;SDS011;21525;41.240;16.500;2023-04-06T08:05:40;9.90;;;4.88;;
35418;SDS011;21525;41.240;16.500;2023-04-06T08:08:05;8.77;;;4.75;;
35418;SDS011;21525;41.240;16.500;2023-04-06T08:10:31;9.52;;;5.00;;
35418;SDS011;21525;41.240;16.500;2023-04-06T08:12:59;12.70;;;6.32;;
35418;SDS011;21525;41.240;16.500;2023-04-06T08:15:25;11.57;;;5.95;;
35418;SDS011;21525;41.240;16.500;2023-04-06T08:17:51;11.00;;;6.15;;
35418;SDS011;21525;41.240;16.500;2023-04-06T08:20:17;11.43;;;6.72;;
35418;SDS011;21525;41.240;16.500;2023-04-06T08:22:43;11.45;;;6.95;;
35418;SDS011;21525;41.240;16.500;2023-04-06T08:25:09;11.50;;;7.82;;
35418;SDS011;21525;41.240;16.500;2023-04-06T08:27:35;11.93;;;6.50;;
35418;SDS011;21525;41.240;16.500;2023-04-06T08:30:00;13.77;;;6.20;;
35418;SDS011;21525;41.240;16.500;2023-04-06T08:32:27;12.75;;;5.63;;
35418;SDS011;21525;41.240;16.500;2023-04-06T08:34:53;13.38;;;6.97;;
35418;SDS011;21525;41.240;16.500;2023-04-06T08:37:20;13.65;;;6.60;;
35418;SDS011;21525;41.240;16.500;2023-04-06T08:39:46;14.68;;;6.85;;
35418;SDS011;21525;41.240;16.500;2023-04-06T08:42:12;15.27;;;5.95;;
35418;SDS011;21525;41.240;16.500;2023-04-06T08:44:47;10.88;;;4.63;;
35418;SDS011;21525;41.240;16.500;2023-04-06T08:47:14;9.07;;;5.00;;
35418;SDS011;21525;41.240;16.500;2023-04-06T08:49:40;7.40;;;4.93;;
35418;SDS011;21525;41.240;16.500;2023-04-06T08:52:07;12.82;;;5.22;;
35418;SDS011;21525;41.240;16.500;2023-04-06T08:54:33;15.63;;;6.22;;
35418;SDS011;21525;41.240;16.500;2023-04-06T08:56:59;8.65;;;5.95;;
35418;SDS011;21525;41.240;16.500;2023-04-06T08:59:27;12.00;;;6.18;;
35418;SDS011;21525;41.240;16.500;2023-04-06T09:01:53;14.02;;;6.38;;
35418;SDS011;21525;41.240;16.500;2023-04-06T09:04:21;10.50;;;5.47;;
35418;SDS011;21525;41.240;16.500;2023-04-06T09:06:47;14.15;;;6.18;;
35418;SDS011;21525;41.240;16.500;2023-04-06T09:09:12;10.57;;;5.57;;
35418;SDS011;21525;41.240;16.500;2023-04-06T09:11:45;10.40;;;5.40;;
35418;SDS011;21525;41.240;16.500;2023-04-06T09:14:12;14.30;;;6.10;;
35418;SDS011;21525;41.240;16.500;2023-04-06T09:16:39;9.60;;;5.28;;
35418;SDS011;21525;41.240;16.500;2023-04-06T09:19:09;9.27;;;5.07;;
35418;SDS011;21525;41.240;16.500;2023-04-06T09:21:35;9.55;;;5.25;;
35418;SDS011;21525;41.240;16.500;2023-04-06T09:24:03;11.48;;;4.93;;
35418;SDS011;21525;41.240;16.500;2023-04-06T09:26:29;11.77;;;5.47;;
35418;SDS011;21525;41.240;16.500;2023-04-06T09:28:56;11.80;;;5.05;;
35418;SDS011;21525;41.240;16.500;2023-04-06T09:31:25;14.27;;;7.28;;
35418;SDS011;21525;41.240;16.500;2023-04-06T09:33:52;13.02;;;5.85;;
35418;SDS011;21525;41.240;16.500;2023-04-06T09:36:18;10.25;;;5.70;;
35418;SDS011;21525;41.240;16.500;2023-04-06T09:38:54;7.13;;;4.80;;
35418;SDS011;21525;41.240;16.500;2023-04-06T09:46:32;8.02;;;3.90;;
35418;SDS011;21525;41.240;16.500;2023-04-06T09:49:03;9.70;;;4.30;;
35418;SDS011;21525;41.240;16.500;2023-04-06T09:51:30;10.05;;;4.60;;
35418;SDS011;21525;41.240;16.500;2023-04-06T09:54:01;11.80;;;4.57;;
35418;SDS011;21525;41.240;16.500;2023-04-06T09:56:31;10.90;;;3.83;;
35418;SDS011;21525;41.240;16.500;2023-04-06T09:59:05;7.97;;;4.53;;
35418;SDS011;21525;41.240;16.500;2023-04-06T10:01:53;8.82;;;4.53;;
35418;SDS011;21525;41.240;16.500;2023-04-06T10:04:38;9.55;;;5.05;;
35418;SDS011;21525;41.240;16.500;2023-04-06T10:07:09;12.13;;;5.93;;
35418;SDS011;21525;41.240;16.500;2023-04-06T10:09:37;9.77;;;5.18;;
35418;SDS011;21525;41.240;16.500;2023-04-06T10:12:04;11.50;;;4.80;;
35418;SDS011;21525;41.240;16.500;2023-04-06T10:14:34;10.00;;;4.35;;
35418;SDS011;21525;41.240;16.500;2023-04-06T10:17:03;9.35;;;4.47;;
35418;SDS011;21525;41.240;16.500;2023-04-06T10:22:29;10.25;;;4.80;;
35418;SDS011;21525;41.240;16.500;2023-04-06T10:25:02;9.85;;;4.85;;
35418;SDS011;21525;41.240;16.500;2023-04-06T10:27:28;13.38;;;5.03;;
35418;SDS011;21525;41.240;16.500;2023-04-06T10:30:00;13.77;;;5.53;;
35418;SDS011;21525;41.240;16.500;2023-04-06T10:32:32;10.95;;;5.70;;
35418;SDS011;21525;41.240;16.500;2023-04-06T10:35:05;10.98;;;5.18;;
35418;SDS011;21525;41.240;16.500;2023-04-06T10:37:45;15.75;;;5.75;;
35418;SDS011;21525;41.240;16.500;2023-04-06T10:40:32;13.80;;;5.63;;
35418;SDS011;21525;41.240;16.500;2023-04-06T10:43:08;17.05;;;6.25;;
35418;SDS011;21525;41.240;16.500;2023-04-06T10:45:34;9.00;;;4.90;;
35418;SDS011;21525;41.240;16.500;2023-04-06T10:48:01;10.98;;;5.60;;
35418;SDS011;21525;41.240;16.500;2023-04-06T10:50:39;9.87;;;5.47;;
35418;SDS011;21525;41.240;16.500;2023-04-06T10:53:05;11.95;;;6.10;;
35418;SDS011;21525;41.240;16.500;2023-04-06T10:55:31;11.52;;;4.82;;
35418;SDS011;21525;41.240;16.500;2023-04-06T10:57:57;9.98;;;5.13;;
35418;SDS011;21525;41.240;16.500;2023-04-06T11:00:23;10.75;;;4.38;;
35418;SDS011;21525;41.240;16.500;2023-04-06T11:02:49;8.90;;;5.05;;
35418;SDS011;21525;41.240;16.500;2023-04-06T11:05:15;12.45;;;4.75;;
35418;SDS011;21525;41.240;16.500;2023-04-06T11:07:41;11.23;;;4.57;;
35418;SDS011;21525;41.240;16.500;2023-04-06T11:10:07;12.52;;;4.93;;
35418;SDS011;21525;41.240;16.500;2023-04-06T11:12:33;9.85;;;5.43;;
35418;SDS011;21525;41.240;16.500;2023-04-06T11:15:00;20.33;;;9.18;;
35418;SDS011;21525;41.240;16.500;2023-04-06T11:17:31;17.55;;;6.22;;
35418;SDS011;21525;41.240;16.500;2023-04-06T11:19:58;9.98;;;4.47;;
35418;SDS011;21525;41.240;16.500;2023-04-06T11:22:25;8.32;;;4.63;;
35418;SDS011;21525;41.240;16.500;2023-04-06T11:24:51;10.32;;;4.40;;
35418;SDS011;21525;41.240;16.500;2023-04-06T11:27:18;20.80;;;4.72;;
35418;SDS011;21525;41.240;16.500;2023-04-06T11:29:44;10.05;;;4.22;;
35418;SDS011;21525;41.240;16.500;2023-04-06T11:32:21;12.40;;;4.63;;
35418;SDS011;21525;41.240;16.500;2023-04-06T11:34:47;9.68;;;4.72;;
35418;SDS011;21525;41.240;16.500;2023-04-06T11:37:14;14.30;;;4.97;;
35418;SDS011;21525;41.240;16.500;2023-04-06T11:39:49;10.30;;;4.35;;
35418;SDS011;21525;41.240;16.500;2023-04-06T11:44:50;12.23;;;4.88;;
35418;SDS011;21525;41.240;16.500;2023-04-06T11:47:18;12.50;;;5.27;;
35418;SDS011;21525;41.240;16.500;2023-04-06T11:49:44;9.20;;;4.32;;
35418;SDS011;21525;41.240;16.500;2023-04-06T11:54:49;10.93;;;4.43;;
35418;SDS011;21525;41.240;16.500;2023-04-06T11:57:16;11.65;;;4.32;;
35418;SDS011;21525;41.240;16.500;2023-04-06T11:59:42;12.10;;;4.57;;
35418;SDS011;21525;41.240;16.500;2023-04-06T12:02:08;10.27;;;4.90;;
35418;SDS011;21525;41.240;16.500;2023-04-06T12:04:34;13.60;;;4.63;;
35418;SDS011;21525;41.240;16.500;2023-04-06T12:07:00;9.80;;;4.95;;
35418;SDS011;21525;41.240;16.500;2023-04-06T12:09:27;8.55;;;4.57;;
35418;SDS011;21525;41.240;16.500;2023-04-06T12:11:53;15.50;;;6.05;;
35418;SDS011;21525;41.240;16.500;2023-04-06T12:14:18;14.50;;;4.32;;
35418;SDS011;21525;41.240;16.500;2023-04-06T12:16:44;10.85;;;3.63;;
35418;SDS011;21525;41.240;16.500;2023-04-06T12:19:10;11.30;;;4.00;;
35418;SDS011;21525;41.240;16.500;2023-04-06T12:21:36;12.05;;;3.67;;
35418;SDS011;21525;41.240;16.500;2023-04-06T12:24:02;11.55;;;4.43;;
35418;SDS011;21525;41.240;16.500;2023-04-06T12:26:29;14.20;;;5.03;;
35418;SDS011;21525;41.240;16.500;2023-04-06T12:28:55;8.05;;;3.25;;
35418;SDS011;21525;41.240;16.500;2023-04-06T12:31:21;17.02;;;5.00;;
35418;SDS011;21525;41.240;16.500;2023-04-06T12:33:51;9.88;;;3.95;;
35418;SDS011;21525;41.240;16.500;2023-04-06T12:36:18;10.82;;;3.53;;
35418;SDS011;21525;41.240;16.500;2023-04-06T12:38:48;11.93;;;4.13;;
35418;SDS011;21525;41.240;16.500;2023-04-06T12:41:14;11.07;;;3.53;;
35418;SDS011;21525;41.240;16.500;2023-04-06T12:43:42;12.57;;;3.90;;
35418;SDS011;21525;41.240;16.500;2023-04-06T12:46:08;10.77;;;3.30;;
35418;SDS011;21525;41.240;16.500;2023-04-06T12:48:34;12.55;;;3.10;;
35418;SDS011;21525;41.240;16.500;2023-04-06T12:51:01;8.65;;;3.42;;
35418;SDS011;21525;41.240;16.500;2023-04-06T12:53:29;9.85;;;3.10;;
35418;SDS011;21525;41.240;16.500;2023-04-06T12:55:55;7.30;;;3.20;;
35418;SDS011;21525;41.240;16.500;2023-04-06T12:58:22;10.43;;;3.72;;
35418;SDS011;21525;41.240;16.500;2023-04-06T13:03:19;10.02;;;2.92;;
35418;SDS011;21525;41.240;16.500;2023-04-06T13:05:46;11.45;;;3.00;;
35418;SDS011;21525;41.240;16.500;2023-04-06T13:08:13;10.30;;;3.72;;
35418;SDS011;21525;41.240;16.500;2023-04-06T13:10:46;12.75;;;3.20;;
35418;SDS011;21525;41.240;16.500;2023-04-06T13:13:25;8.07;;;3.17;;
35418;SDS011;21525;41.240;16.500;2023-04-06T13:15:53;11.52;;;4.15;;
35418;SDS011;21525;41.240;16.500;2023-04-06T13:18:20;11.32;;;3.70;;
35418;SDS011;21525;41.240;16.500;2023-04-06T13:20:48;9.50;;;3.17;;
35418;SDS011;21525;41.240;16.500;2023-04-06T13:23:14;12.05;;;3.60;;
35418;SDS011;21525;41.240;16.500;2023-04-06T13:25:41;14.82;;;3.40;;
35418;SDS011;21525;41.240;16.500;2023-04-06T13:28:07;13.25;;;4.00;;
35418;SDS011;21525;41.240;16.500;2023-04-06T13:30:34;9.93;;;3.72;;
35418;SDS011;21525;41.240;16.500;2023-04-06T13:33:01;6.70;;;2.90;;
35418;SDS011;21525;41.240;16.500;2023-04-06T13:35:27;9.65;;;2.80;;
35418;SDS011;21525;41.240;16.500;2023-04-06T13:37:52;8.07;;;3.08;;
35418;SDS011;21525;41.240;16.500;2023-04-06T13:40:18;10.18;;;3.50;;
35418;SDS011;21525;41.240;16.500;2023-04-06T13:42:44;8.65;;;3.10;;
35418;SDS011;21525;41.240;16.500;2023-04-06T13:45:11;9.95;;;3.38;;
35418;SDS011;21525;41.240;16.500;2023-04-06T13:47:37;8.98;;;3.50;;
35418;SDS011;21525;41.240;16.500;2023-04-06T13:50:03;13.00;;;4.85;;
35418;SDS011;21525;41.240;16.500;2023-04-06T13:52:29;6.90;;;3.55;;
35418;SDS011;21525;41.240;16.500;2023-04-06T13:54:55;8.10;;;3.70;;
35418;SDS011;21525;41.240;16.500;2023-04-06T13:57:21;7.32;;;3.45;;
35418;SDS011;21525;41.240;16.500;2023-04-06T13:59:47;8.75;;;4.07;;
35418;SDS011;21525;41.240;16.500;2023-04-06T14:02:14;7.05;;;3.20;;
35418;SDS011;21525;41.240;16.500;2023-04-06T14:04:40;6.35;;;3.67;;
35418;SDS011;21525;41.240;16.500;2023-04-06T14:07:06;9.90;;;4.30;;
35418;SDS011;21525;41.240;16.500;2023-04-06T14:09:32;6.95;;;3.35;;
35418;SDS011;21525;41.240;16.500;2023-04-06T14:11:59;7.90;;;3.38;;
35418;SDS011;21525;41.240;16.500;2023-04-06T14:14:25;10.82;;;3.70;;
35418;SDS011;21525;41.240;16.500;2023-04-06T14:16:51;10.02;;;3.38;;
35418;SDS011;21525;41.240;16.500;2023-04-06T14:19:19;7.40;;;3.60;;
35418;SDS011;21525;41.240;16.500;2023-04-06T14:21:46;8.35;;;3.72;;
35418;SDS011;21525;41.240;16.500;2023-04-06T14:24:14;12.50;;;4.95;;
35418;SDS011;21525;41.240;16.500;2023-04-06T14:26:41;12.27;;;4.30;;
35418;SDS011;21525;41.240;16.500;2023-04-06T14:29:07;12.88;;;5.13;;
35418;SDS011;21525;41.240;16.500;2023-04-06T14:31:33;8.75;;;4.47;;
35418;SDS011;21525;41.240;16.500;2023-04-06T14:34:00;10.18;;;4.13;;
35418;SDS011;21525;41.240;16.500;2023-04-06T14:36:27;13.60;;;5.90;;
35418;SDS011;21525;41.240;16.500;2023-04-06T14:38:56;8.63;;;4.03;;
35418;SDS011;21525;41.240;16.500;2023-04-06T14:41:23;6.45;;;3.28;;
35418;SDS011;21525;41.240;16.500;2023-04-06T14:43:50;8.00;;;3.35;;
35418;SDS011;21525;41.240;16.500;2023-04-06T14:46:17;9.70;;;3.80;;
35418;SDS011;21525;41.240;16.500;2023-04-06T14:48:44;6.15;;;3.25;;
35418;SDS011;21525;41.240;16.500;2023-04-06T14:51:10;7.40;;;3.28;;